createdAt,value
2017-01-03T00:00:00.682Z,2.9
2017-01-03T00:00:10.675Z,2.9
2017-01-03T00:00:20.667Z,2.9
2017-01-03T00:00:30.659Z,2.9
2017-01-03T00:00:40.654Z,2.9
2017-01-03T00:00:50.645Z,2.9
2017-01-03T00:01:00.638Z,2.9
2017-01-03T00:01:10.634Z,2.9
2017-01-03T00:01:20.652Z,2.9
2017-01-03T00:01:30.621Z,2.9
2017-01-03T00:01:40.611Z,2.8
2017-01-03T00:01:50.604Z,2.9
2017-01-03T00:02:00.597Z,2.9
2017-01-03T00:02:10.595Z,2.9
2017-01-03T00:02:20.584Z,2.9
2017-01-03T00:02:30.576Z,2.9
2017-01-03T00:02:40.571Z,2.8
2017-01-03T00:02:50.563Z,2.8
2017-01-03T00:03:00.562Z,2.8
2017-01-03T00:03:10.555Z,2.8
2017-01-03T00:03:20.548Z,2.9
2017-01-03T00:03:30.541Z,2.8
2017-01-03T00:03:40.547Z,2.8
2017-01-03T00:03:50.526Z,2.8
2017-01-03T00:04:00.518Z,2.9
2017-01-03T00:04:10.514Z,2.9
2017-01-03T00:04:20.503Z,2.9
2017-01-03T00:04:30.493Z,2.9
2017-01-03T00:04:40.489Z,2.9
2017-01-03T00:04:50.485Z,2.9
2017-01-03T00:05:00.476Z,2.9
2017-01-03T00:05:10.473Z,2.9
2017-01-03T00:05:20.461Z,2.9
2017-01-03T00:05:30.458Z,2.9
2017-01-03T00:05:40.453Z,2.9
2017-01-03T00:05:50.436Z,2.9
2017-01-03T00:06:00.437Z,2.9
2017-01-03T00:06:10.428Z,2.9
2017-01-03T00:06:20.422Z,2.9
2017-01-03T00:06:30.417Z,2.9
2017-01-03T00:06:40.408Z,2.9
2017-01-03T00:06:50.402Z,2.9
2017-01-03T00:07:00.394Z,2.9
2017-01-03T00:07:10.388Z,2.9
2017-01-03T00:07:20.381Z,2.9
2017-01-03T00:07:30.806Z,2.9
2017-01-03T00:07:40.370Z,2.9
2017-01-03T00:07:50.362Z,2.9
2017-01-03T00:08:00.357Z,2.9
2017-01-03T00:08:10.349Z,2.9
2017-01-03T00:08:20.341Z,2.9
2017-01-03T00:08:30.333Z,2.8
2017-01-03T00:08:40.325Z,2.8
2017-01-03T00:08:50.318Z,2.8
2017-01-03T00:09:00.312Z,2.8
2017-01-03T00:09:10.307Z,2.9
2017-01-03T00:09:20.299Z,2.8
2017-01-03T00:09:30.292Z,2.8
2017-01-03T00:09:40.289Z,2.8
2017-01-03T00:09:50.280Z,2.8
2017-01-03T00:10:00.270Z,2.8
2017-01-03T00:10:10.267Z,2.8
2017-01-03T00:10:20.259Z,2.8
2017-01-03T00:10:30.252Z,2.8
2017-01-03T00:10:40.248Z,2.8
2017-01-03T00:10:50.241Z,2.8
2017-01-03T00:11:00.233Z,2.8
2017-01-03T00:11:10.227Z,2.8
2017-01-03T00:11:20.218Z,2.8
2017-01-03T00:11:30.213Z,2.8
2017-01-03T00:11:40.203Z,2.8
2017-01-03T00:11:50.196Z,2.8
2017-01-03T00:12:00.196Z,2.8
2017-01-03T00:12:10.184Z,2.8
2017-01-03T00:12:20.180Z,2.8
2017-01-03T00:12:30.172Z,2.8
2017-01-03T00:12:40.165Z,2.8
2017-01-03T00:12:50.157Z,2.8
2017-01-03T00:13:00.153Z,2.8
2017-01-03T00:13:10.147Z,2.8
2017-01-03T00:13:20.135Z,2.8
2017-01-03T00:13:30.131Z,2.8
2017-01-03T00:13:40.124Z,2.8
2017-01-03T00:13:50.114Z,2.7
2017-01-03T00:14:00.106Z,2.7
2017-01-03T00:14:10.103Z,2.8
2017-01-03T00:14:20.096Z,2.8
2017-01-03T00:14:30.092Z,2.8
2017-01-03T00:14:40.078Z,2.8
2017-01-03T00:14:50.073Z,2.8
2017-01-03T00:15:00.068Z,2.8
2017-01-03T00:15:10.063Z,2.8
2017-01-03T00:15:20.054Z,2.8
2017-01-03T00:15:30.051Z,2.8
2017-01-03T00:15:40.041Z,2.8
2017-01-03T00:15:50.031Z,2.8
2017-01-03T00:16:00.030Z,2.8
2017-01-03T00:16:10.021Z,2.8
2017-01-03T00:16:20.013Z,2.7
2017-01-03T00:16:30.010Z,2.7
2017-01-03T00:16:40.000Z,2.8
2017-01-03T00:16:49.991Z,2.7
2017-01-03T00:16:59.989Z,2.7
2017-01-03T00:17:09.981Z,2.7
2017-01-03T00:17:19.971Z,2.7
2017-01-03T00:17:29.963Z,2.8
2017-01-03T00:17:39.957Z,2.7
2017-01-03T00:17:49.952Z,2.7
2017-01-03T00:17:59.947Z,2.7
2017-01-03T00:18:09.946Z,2.7
2017-01-03T00:18:19.933Z,2.7
2017-01-03T00:18:30.053Z,2.7
2017-01-03T00:18:39.921Z,2.7
2017-01-03T00:18:49.911Z,2.7
2017-01-03T00:18:59.922Z,2.7
2017-01-03T00:19:09.894Z,2.7
2017-01-03T00:19:19.889Z,2.7
2017-01-03T00:19:29.882Z,2.7
2017-01-03T00:19:39.875Z,2.7
2017-01-03T00:19:50.003Z,2.7
2017-01-03T00:19:59.867Z,2.7
2017-01-03T00:20:09.857Z,2.7
2017-01-03T00:20:19.851Z,2.7
2017-01-03T00:20:29.840Z,2.7
2017-01-03T00:20:39.832Z,2.7
2017-01-03T00:20:49.828Z,2.7
2017-01-03T00:20:59.824Z,2.7
2017-01-03T00:21:09.819Z,2.7
2017-01-03T00:21:19.811Z,2.7
2017-01-03T00:21:29.805Z,2.7
2017-01-03T00:21:39.796Z,2.7
2017-01-03T00:21:49.787Z,2.7
2017-01-03T00:21:59.782Z,2.7
2017-01-03T00:22:09.778Z,2.7
2017-01-03T00:22:19.772Z,2.7
2017-01-03T00:22:29.760Z,2.7
2017-01-03T00:22:39.755Z,2.7
2017-01-03T00:22:49.748Z,2.7
2017-01-03T00:22:59.741Z,2.7
2017-01-03T00:23:09.756Z,2.7
2017-01-03T00:23:19.733Z,2.7
2017-01-03T00:23:29.726Z,2.7
2017-01-03T00:23:39.847Z,2.7
2017-01-03T00:23:49.707Z,2.7
2017-01-03T00:23:59.700Z,2.7
2017-01-03T00:24:09.696Z,2.7
2017-01-03T00:24:19.688Z,2.7
2017-01-03T00:24:29.811Z,2.7
2017-01-03T00:24:39.802Z,2.7
2017-01-03T00:24:49.668Z,2.7
2017-01-03T00:24:59.791Z,2.7
2017-01-03T00:25:09.654Z,2.7
2017-01-03T00:25:19.647Z,2.7
2017-01-03T00:25:29.640Z,2.7
2017-01-03T00:25:39.631Z,2.6
2017-01-03T00:25:49.629Z,2.7
2017-01-03T00:25:59.619Z,2.7
2017-01-03T00:26:09.611Z,2.7
2017-01-03T00:26:19.606Z,2.6
2017-01-03T00:26:29.603Z,2.7
2017-01-03T00:26:39.590Z,2.6
2017-01-03T00:26:49.585Z,2.6
2017-01-03T00:26:59.580Z,2.6
2017-01-03T00:27:09.572Z,2.6
2017-01-03T00:27:19.564Z,2.6
2017-01-03T00:27:29.556Z,2.6
2017-01-03T00:27:39.550Z,2.6
2017-01-03T00:27:49.544Z,2.6
2017-01-03T00:27:59.538Z,2.6
2017-01-03T00:28:09.532Z,2.6
2017-01-03T00:28:19.655Z,2.6
2017-01-03T00:28:29.514Z,2.6
2017-01-03T00:28:39.516Z,2.6
2017-01-03T00:28:49.505Z,2.6
2017-01-03T00:28:59.500Z,2.6
2017-01-03T00:29:09.488Z,2.6
2017-01-03T00:29:19.483Z,2.6
2017-01-03T00:29:29.481Z,2.6
2017-01-03T00:29:39.471Z,2.6
2017-01-03T00:29:49.461Z,2.6
2017-01-03T00:29:59.458Z,2.6
2017-01-03T00:30:09.453Z,2.6
2017-01-03T00:30:19.443Z,2.6
2017-01-03T00:30:29.438Z,2.6
2017-01-03T00:30:39.427Z,2.6
2017-01-03T00:30:49.422Z,2.6
2017-01-03T00:30:59.415Z,2.6
2017-01-03T00:31:09.408Z,2.6
2017-01-03T00:31:19.818Z,2.6
2017-01-03T00:31:29.393Z,2.6
2017-01-03T00:31:39.392Z,2.6
2017-01-03T00:31:49.378Z,2.6
2017-01-03T00:31:59.376Z,2.6
2017-01-03T00:32:09.367Z,2.6
2017-01-03T00:32:19.365Z,2.6
2017-01-03T00:32:29.351Z,2.6
2017-01-03T00:32:39.344Z,2.6
2017-01-03T00:32:49.344Z,2.6
2017-01-03T00:32:59.329Z,2.5
2017-01-03T00:33:09.328Z,2.5
2017-01-03T00:33:19.323Z,2.5
2017-01-03T00:33:29.314Z,2.5
2017-01-03T00:33:39.303Z,2.5
2017-01-03T00:33:49.299Z,2.5
2017-01-03T00:33:59.293Z,2.5
2017-01-03T00:34:09.286Z,2.5
2017-01-03T00:34:19.277Z,2.5
2017-01-03T00:34:29.274Z,2.5
2017-01-03T00:34:39.265Z,2.5
2017-01-03T00:34:49.260Z,2.5
2017-01-03T00:34:59.251Z,2.5
2017-01-03T00:35:09.242Z,2.5
2017-01-03T00:35:19.242Z,2.5
2017-01-03T00:35:29.236Z,2.5
2017-01-03T00:35:39.223Z,2.5
2017-01-03T00:35:49.215Z,2.5
2017-01-03T00:35:59.235Z,2.5
2017-01-03T00:36:09.202Z,2.5
2017-01-03T00:36:19.194Z,2.5
2017-01-03T00:36:29.188Z,2.5
2017-01-03T00:36:39.179Z,2.5
2017-01-03T00:36:49.174Z,2.5
2017-01-03T00:36:59.170Z,2.5
2017-01-03T00:37:09.163Z,2.5
2017-01-03T00:37:19.155Z,2.5
2017-01-03T00:37:29.144Z,2.5
2017-01-03T00:37:39.141Z,2.5
2017-01-03T00:37:49.136Z,2.5
2017-01-03T00:37:59.158Z,2.5
2017-01-03T00:38:09.125Z,2.5
2017-01-03T00:38:19.119Z,2.5
2017-01-03T00:38:29.109Z,2.5
2017-01-03T00:38:39.101Z,2.5
2017-01-03T00:38:49.096Z,2.5
2017-01-03T00:38:59.088Z,2.5
2017-01-03T00:39:09.083Z,2.5
2017-01-03T00:39:19.074Z,2.5
2017-01-03T00:39:29.072Z,2.5
2017-01-03T00:39:39.057Z,2.5
2017-01-03T00:39:49.057Z,2.5
2017-01-03T00:39:59.049Z,2.5
2017-01-03T00:40:09.075Z,2.5
2017-01-03T00:40:19.171Z,2.5
2017-01-03T00:40:29.024Z,2.5
2017-01-03T00:40:39.021Z,2.5
2017-01-03T00:40:49.145Z,2.5
2017-01-03T00:40:59.007Z,2.5
2017-01-03T00:41:08.996Z,2.5
2017-01-03T00:41:18.993Z,2.5
2017-01-03T00:41:28.984Z,2.5
2017-01-03T00:41:38.978Z,2.5
2017-01-03T00:41:48.972Z,2.5
2017-01-03T00:41:58.964Z,2.5
2017-01-03T00:42:08.961Z,2.5
2017-01-03T00:42:18.974Z,2.5
2017-01-03T00:42:28.942Z,2.5
2017-01-03T00:42:38.937Z,2.5
2017-01-03T00:42:48.930Z,2.5
2017-01-03T00:42:58.926Z,2.5
2017-01-03T00:43:08.918Z,2.5
2017-01-03T00:43:18.912Z,2.5
2017-01-03T00:43:28.907Z,2.5
2017-01-03T00:43:38.894Z,2.5
2017-01-03T00:43:48.892Z,2.5
2017-01-03T00:43:58.883Z,2.5
2017-01-03T00:44:08.875Z,2.5
2017-01-03T00:44:18.868Z,2.5
2017-01-03T00:44:28.860Z,2.5
2017-01-03T00:44:38.854Z,2.5
2017-01-03T00:44:48.847Z,2.5
2017-01-03T00:44:58.842Z,2.5
2017-01-03T00:45:08.836Z,2.5
2017-01-03T00:45:18.825Z,2.5
2017-01-03T00:45:28.820Z,2.5
2017-01-03T00:45:38.812Z,2.5
2017-01-03T00:45:48.808Z,2.5
2017-01-03T00:45:58.804Z,2.5
2017-01-03T00:46:08.794Z,2.5
2017-01-03T00:46:18.785Z,2.5
2017-01-03T00:46:28.779Z,2.6
2017-01-03T00:46:38.776Z,2.5
2017-01-03T00:46:48.767Z,2.5
2017-01-03T00:46:58.764Z,2.5
2017-01-03T00:47:08.751Z,2.5
2017-01-03T00:47:18.748Z,2.5
2017-01-03T00:47:28.738Z,2.5
2017-01-03T00:47:38.733Z,2.5
2017-01-03T00:47:48.725Z,2.5
2017-01-03T00:47:58.854Z,2.5
2017-01-03T00:48:08.713Z,2.5
2017-01-03T00:48:18.705Z,2.5
2017-01-03T00:48:28.695Z,2.5
2017-01-03T00:48:38.689Z,2.5
2017-01-03T00:48:48.686Z,2.5
2017-01-03T00:48:58.678Z,2.5
2017-01-03T00:49:08.670Z,2.5
2017-01-03T00:49:18.669Z,2.5
2017-01-03T00:49:28.653Z,2.5
2017-01-03T00:49:38.651Z,2.5
2017-01-03T00:49:48.642Z,2.4
2017-01-03T00:49:58.637Z,2.4
2017-01-03T00:50:08.631Z,2.4
2017-01-03T00:50:18.626Z,2.5
2017-01-03T00:50:28.616Z,2.5
2017-01-03T00:50:38.615Z,2.5
2017-01-03T00:50:48.603Z,2.5
2017-01-03T00:50:58.599Z,2.4
2017-01-03T00:51:08.589Z,2.5
2017-01-03T00:51:19.003Z,2.5
2017-01-03T00:51:28.573Z,2.5
2017-01-03T00:51:38.566Z,2.5
2017-01-03T00:51:48.560Z,2.5
2017-01-03T00:51:58.558Z,2.5
2017-01-03T00:52:08.547Z,2.5
2017-01-03T00:52:18.538Z,2.5
2017-01-03T00:52:28.533Z,2.5
2017-01-03T00:52:38.527Z,2.5
2017-01-03T00:52:48.941Z,2.5
2017-01-03T00:52:58.513Z,2.5
2017-01-03T00:53:08.508Z,2.5
2017-01-03T00:53:18.503Z,2.5
2017-01-03T00:53:28.495Z,2.5
2017-01-03T00:53:38.488Z,2.5
2017-01-03T00:53:48.481Z,2.5
2017-01-03T00:53:58.476Z,2.5
2017-01-03T00:54:08.468Z,2.5
2017-01-03T00:54:18.456Z,2.5
2017-01-03T00:54:28.450Z,2.5
2017-01-03T00:54:38.443Z,2.5
2017-01-03T00:54:48.440Z,2.4
2017-01-03T00:54:58.435Z,2.5
2017-01-03T00:55:08.422Z,2.5
2017-01-03T00:55:18.415Z,2.5
2017-01-03T00:55:28.412Z,2.5
2017-01-03T00:55:38.405Z,2.5
2017-01-03T00:55:48.400Z,2.5
2017-01-03T00:55:58.390Z,2.5
2017-01-03T00:56:08.379Z,2.4
2017-01-03T00:56:18.378Z,2.5
2017-01-03T00:56:28.506Z,2.4
2017-01-03T00:56:38.363Z,2.4
2017-01-03T00:56:48.356Z,2.4
2017-01-03T00:56:58.350Z,2.4
2017-01-03T00:57:08.347Z,2.4
2017-01-03T00:57:18.334Z,2.4
2017-01-03T00:57:28.325Z,2.4
2017-01-03T00:57:38.324Z,2.4
2017-01-03T00:57:48.343Z,2.4
2017-01-03T00:57:58.312Z,2.4
2017-01-03T00:58:08.299Z,2.4
2017-01-03T00:58:18.295Z,2.4
2017-01-03T00:58:28.289Z,2.4
2017-01-03T00:58:38.281Z,2.4
2017-01-03T00:58:48.278Z,2.4
2017-01-03T00:58:58.270Z,2.4
2017-01-03T00:59:08.263Z,2.4
2017-01-03T00:59:18.253Z,2.3
2017-01-03T00:59:28.246Z,2.4
2017-01-03T00:59:38.240Z,2.4
2017-01-03T00:59:48.233Z,2.4
2017-01-03T00:59:58.229Z,2.3
2017-01-03T01:00:08.222Z,2.4
2017-01-03T01:00:18.210Z,2.4
2017-01-03T01:00:28.208Z,2.4
2017-01-03T01:00:38.198Z,2.4
2017-01-03T01:00:48.216Z,2.4
2017-01-03T01:00:58.188Z,2.4
2017-01-03T01:01:08.177Z,2.4
2017-01-03T01:01:18.170Z,2.4
2017-01-03T01:01:28.164Z,2.4
2017-01-03T01:01:38.160Z,2.4
2017-01-03T01:01:48.156Z,2.4
2017-01-03T01:01:58.144Z,2.4
2017-01-03T01:02:08.136Z,2.3
2017-01-03T01:02:18.155Z,2.3
2017-01-03T01:02:28.124Z,2.3
2017-01-03T01:02:38.119Z,2.3
2017-01-03T01:02:48.111Z,2.3
2017-01-03T01:02:58.102Z,2.3
2017-01-03T01:03:08.099Z,2.3
2017-01-03T01:03:18.091Z,2.3
2017-01-03T01:03:28.084Z,2.3
2017-01-03T01:03:38.083Z,2.3
2017-01-03T01:03:48.072Z,2.3
2017-01-03T01:03:58.477Z,2.3
2017-01-03T01:04:08.059Z,2.3
2017-01-03T01:04:18.049Z,2.3
2017-01-03T01:04:28.043Z,2.3
2017-01-03T01:04:38.037Z,2.3
2017-01-03T01:04:48.030Z,2.3
2017-01-03T01:04:58.024Z,2.3
2017-01-03T01:05:08.016Z,2.3
2017-01-03T01:05:18.008Z,2.3
2017-01-03T01:05:27.998Z,2.3
2017-01-03T01:05:37.992Z,2.3
2017-01-03T01:05:47.989Z,2.3
2017-01-03T01:05:57.982Z,2.3
2017-01-03T01:06:07.982Z,2.3
2017-01-03T01:06:17.963Z,2.3
2017-01-03T01:06:27.962Z,2.3
2017-01-03T01:06:37.956Z,2.3
2017-01-03T01:06:47.945Z,2.3
2017-01-03T01:06:57.940Z,2.3
2017-01-03T01:07:07.934Z,2.3
2017-01-03T01:07:17.924Z,2.3
2017-01-03T01:07:27.920Z,2.3
2017-01-03T01:07:37.913Z,2.3
2017-01-03T01:07:47.906Z,2.3
2017-01-03T01:07:57.899Z,2.3
2017-01-03T01:08:07.890Z,2.3
2017-01-03T01:08:17.886Z,2.3
2017-01-03T01:08:27.880Z,2.3
2017-01-03T01:08:37.876Z,2.3
2017-01-03T01:08:47.866Z,2.3
2017-01-03T01:08:57.856Z,2.3
2017-01-03T01:09:07.851Z,2.3
2017-01-03T01:09:17.844Z,2.3
2017-01-03T01:09:27.837Z,2.3
2017-01-03T01:09:37.832Z,2.3
2017-01-03T01:09:47.828Z,2.3
2017-01-03T01:09:57.821Z,2.3
2017-01-03T01:10:07.811Z,2.3
2017-01-03T01:10:17.937Z,2.3
2017-01-03T01:10:27.927Z,2.3
2017-01-03T01:10:37.792Z,2.3
2017-01-03T01:10:47.784Z,2.3
2017-01-03T01:10:57.778Z,2.3
2017-01-03T01:11:07.784Z,2.3
2017-01-03T01:11:17.762Z,2.3
2017-01-03T01:11:27.752Z,2.3
2017-01-03T01:11:37.748Z,2.3
2017-01-03T01:11:47.743Z,2.3
2017-01-03T01:11:57.736Z,2.3
2017-01-03T01:12:07.725Z,2.3
2017-01-03T01:12:17.719Z,2.3
2017-01-03T01:12:27.712Z,2.3
2017-01-03T01:12:37.705Z,2.3
2017-01-03T01:12:47.699Z,2.3
2017-01-03T01:12:57.688Z,2.3
2017-01-03T01:13:07.686Z,2.3
2017-01-03T01:13:17.681Z,2.3
2017-01-03T01:13:27.674Z,2.3
2017-01-03T01:13:37.670Z,2.3
2017-01-03T01:13:48.084Z,2.3
2017-01-03T01:13:57.652Z,2.3
2017-01-03T01:14:07.646Z,2.3
2017-01-03T01:14:17.637Z,2.3
2017-01-03T01:14:27.657Z,2.3
2017-01-03T01:14:37.628Z,2.3
2017-01-03T01:14:47.620Z,2.3
2017-01-03T01:14:57.613Z,2.3
2017-01-03T01:15:07.605Z,2.3
2017-01-03T01:15:17.593Z,2.3
2017-01-03T01:15:27.596Z,2.3
2017-01-03T01:15:37.585Z,2.3
2017-01-03T01:15:47.606Z,2.3
2017-01-03T01:15:57.571Z,2.3
2017-01-03T01:16:07.696Z,2.3
2017-01-03T01:16:17.558Z,2.3
2017-01-03T01:16:27.550Z,2.3
2017-01-03T01:16:37.670Z,2.3
2017-01-03T01:16:47.535Z,2.3
2017-01-03T01:16:57.530Z,2.3
2017-01-03T01:17:07.525Z,2.3
2017-01-03T01:17:17.514Z,2.3
2017-01-03T01:17:27.511Z,2.3
2017-01-03T01:17:37.502Z,2.3
2017-01-03T01:17:47.500Z,2.3
2017-01-03T01:17:57.487Z,2.3
2017-01-03T01:18:07.483Z,2.3
2017-01-03T01:18:17.497Z,2.3
2017-01-03T01:18:27.469Z,2.3
2017-01-03T01:18:37.464Z,2.3
2017-01-03T01:18:47.455Z,2.3
2017-01-03T01:18:57.447Z,2.3
2017-01-03T01:19:07.439Z,2.3
2017-01-03T01:19:17.565Z,2.3
2017-01-03T01:19:27.426Z,2.3
2017-01-03T01:19:37.424Z,2.3
2017-01-03T01:19:47.415Z,2.3
2017-01-03T01:19:57.407Z,2.3
2017-01-03T01:20:07.395Z,2.3
2017-01-03T01:20:17.390Z,2.3
2017-01-03T01:20:27.386Z,2.3
2017-01-03T01:20:37.381Z,2.3
2017-01-03T01:20:47.370Z,2.3
2017-01-03T01:20:57.366Z,2.3
2017-01-03T01:21:07.358Z,2.3
2017-01-03T01:21:17.351Z,2.3
2017-01-03T01:21:27.344Z,2.3
2017-01-03T01:21:37.335Z,2.3
2017-01-03T01:21:47.328Z,2.3
2017-01-03T01:21:57.325Z,2.3
2017-01-03T01:22:07.319Z,2.3
2017-01-03T01:22:17.307Z,2.3
2017-01-03T01:22:27.304Z,2.3
2017-01-03T01:22:37.294Z,2.3
2017-01-03T01:22:47.291Z,2.3
2017-01-03T01:22:57.281Z,2.3
2017-01-03T01:23:07.276Z,2.3
2017-01-03T01:23:17.267Z,2.3
2017-01-03T01:23:27.262Z,2.2
2017-01-03T01:23:37.257Z,2.2
2017-01-03T01:23:47.250Z,2.3
2017-01-03T01:23:57.241Z,2.2
2017-01-03T01:24:07.373Z,2.2
2017-01-03T01:24:17.226Z,2.3
2017-01-03T01:24:27.220Z,2.3
2017-01-03T01:24:37.215Z,2.2
2017-01-03T01:24:47.211Z,2.3
2017-01-03T01:24:57.196Z,2.3
2017-01-03T01:25:07.196Z,2.3
2017-01-03T01:25:17.187Z,2.3
2017-01-03T01:25:27.183Z,2.3
2017-01-03T01:25:37.171Z,2.3
2017-01-03T01:25:47.164Z,2.3
2017-01-03T01:25:57.155Z,2.3
2017-01-03T01:26:07.152Z,2.3
2017-01-03T01:26:17.144Z,2.3
2017-01-03T01:26:27.143Z,2.3
2017-01-03T01:26:37.131Z,2.3
2017-01-03T01:26:47.124Z,2.3
2017-01-03T01:26:57.117Z,2.3
2017-01-03T01:27:07.128Z,2.3
2017-01-03T01:27:17.104Z,2.3
2017-01-03T01:27:27.100Z,2.3
2017-01-03T01:27:37.092Z,2.3
2017-01-03T01:27:47.086Z,2.3
2017-01-03T01:27:57.074Z,2.3
2017-01-03T01:28:07.066Z,2.2
2017-01-03T01:28:17.064Z,2.3
2017-01-03T01:28:27.052Z,2.3
2017-01-03T01:28:37.050Z,2.3
2017-01-03T01:28:47.173Z,2.3
2017-01-03T01:28:57.034Z,2.3
2017-01-03T01:29:07.026Z,2.3
2017-01-03T01:29:17.060Z,2.2
2017-01-03T01:29:27.014Z,2.2
2017-01-03T01:29:37.144Z,2.3
2017-01-03T01:29:46.999Z,2.2
2017-01-03T01:29:56.995Z,2.2
2017-01-03T01:30:06.988Z,2.2
2017-01-03T01:30:16.983Z,2.2
2017-01-03T01:30:26.973Z,2.2
2017-01-03T01:30:36.970Z,2.2
2017-01-03T01:30:46.960Z,2.2
2017-01-03T01:30:56.970Z,2.2
2017-01-03T01:31:06.945Z,2.2
2017-01-03T01:31:17.359Z,2.2
2017-01-03T01:31:26.931Z,2.2
2017-01-03T01:31:36.958Z,2.2
2017-01-03T01:31:46.918Z,2.2
2017-01-03T01:31:56.911Z,2.2
2017-01-03T01:32:06.904Z,2.2
2017-01-03T01:32:16.899Z,2.2
2017-01-03T01:32:26.916Z,2.2
2017-01-03T01:32:36.888Z,2.2
2017-01-03T01:32:46.880Z,2.2
2017-01-03T01:32:56.871Z,2.2
2017-01-03T01:33:06.867Z,2.2
2017-01-03T01:33:16.859Z,2.2
2017-01-03T01:33:26.848Z,2.2
2017-01-03T01:33:36.846Z,2.2
2017-01-03T01:33:46.841Z,2.2
2017-01-03T01:33:56.830Z,2.1
2017-01-03T01:34:06.823Z,2.1
2017-01-03T01:34:16.815Z,2.1
2017-01-03T01:34:26.809Z,2.1
2017-01-03T01:34:36.803Z,2.1
2017-01-03T01:34:46.820Z,2.1
2017-01-03T01:34:56.791Z,2.1
2017-01-03T01:35:06.782Z,2.1
2017-01-03T01:35:16.777Z,2.2
2017-01-03T01:35:26.765Z,2.2
2017-01-03T01:35:36.759Z,2.2
2017-01-03T01:35:46.752Z,2.2
2017-01-03T01:35:56.747Z,2.2
2017-01-03T01:36:06.741Z,2.2
2017-01-03T01:36:16.738Z,2.2
2017-01-03T01:36:26.727Z,2.2
2017-01-03T01:36:36.724Z,2.2
2017-01-03T01:36:46.712Z,2.2
2017-01-03T01:36:56.731Z,2.2
2017-01-03T01:37:06.700Z,2.2
2017-01-03T01:37:16.695Z,2.2
2017-01-03T01:37:26.681Z,2.2
2017-01-03T01:37:36.816Z,2.2
2017-01-03T01:37:46.692Z,2.2
2017-01-03T01:37:56.667Z,2.2
2017-01-03T01:38:06.661Z,2.2
2017-01-03T01:38:16.652Z,2.2
2017-01-03T01:38:26.646Z,2.1
2017-01-03T01:38:36.635Z,2.1
2017-01-03T01:38:46.630Z,2.1
2017-01-03T01:38:56.630Z,2.1
2017-01-03T01:39:06.618Z,2.2
2017-01-03T01:39:16.614Z,2.2
2017-01-03T01:39:26.739Z,2.2
2017-01-03T01:39:36.598Z,2.2
2017-01-03T01:39:46.590Z,2.2
2017-01-03T01:39:56.582Z,2.2
2017-01-03T01:40:06.583Z,2.2
2017-01-03T01:40:16.568Z,2.2
2017-01-03T01:40:26.559Z,2.2
2017-01-03T01:40:36.554Z,2.2
2017-01-03T01:40:46.546Z,2.2
2017-01-03T01:40:56.544Z,2.2
2017-01-03T01:41:06.537Z,2.2
2017-01-03T01:41:16.527Z,2.2
2017-01-03T01:41:26.520Z,2.2
2017-01-03T01:41:36.517Z,2.2
2017-01-03T01:41:46.507Z,2.2
2017-01-03T01:41:56.499Z,2.2
2017-01-03T01:42:06.493Z,2.2
2017-01-03T01:42:16.485Z,2.2
2017-01-03T01:42:26.487Z,2.2
2017-01-03T01:42:36.470Z,2.2
2017-01-03T01:42:46.467Z,2.2
2017-01-03T01:42:56.457Z,2.2
2017-01-03T01:43:06.456Z,2.2
2017-01-03T01:43:16.468Z,2.2
2017-01-03T01:43:26.439Z,2.2
2017-01-03T01:43:36.431Z,2.1
2017-01-03T01:43:46.424Z,2.2
2017-01-03T01:43:56.417Z,2.2
2017-01-03T01:44:06.542Z,2.2
2017-01-03T01:44:16.405Z,2.2
2017-01-03T01:44:26.394Z,2.2
2017-01-03T01:44:36.392Z,2.2
2017-01-03T01:44:46.383Z,2.2
2017-01-03T01:44:56.380Z,2.2
2017-01-03T01:45:06.374Z,2.2
2017-01-03T01:45:16.360Z,2.1
2017-01-03T01:45:26.485Z,2.1
2017-01-03T01:45:36.350Z,2.1
2017-01-03T01:45:46.340Z,2.2
2017-01-03T01:45:56.334Z,2.2
2017-01-03T01:46:06.458Z,2.2
2017-01-03T01:46:16.324Z,2.1
2017-01-03T01:46:26.315Z,2.1
2017-01-03T01:46:36.309Z,2.2
2017-01-03T01:46:46.300Z,2.2
2017-01-03T01:46:56.427Z,2.2
2017-01-03T01:47:06.288Z,2.2
2017-01-03T01:47:16.276Z,2.2
2017-01-03T01:47:26.412Z,2.2
2017-01-03T01:47:36.296Z,2.2
2017-01-03T01:47:46.258Z,2.2
2017-01-03T01:47:56.259Z,2.2
2017-01-03T01:48:06.247Z,2.2
2017-01-03T01:48:16.239Z,2.2
2017-01-03T01:48:26.260Z,2.2
2017-01-03T01:48:36.226Z,2.2
2017-01-03T01:48:46.217Z,2.2
2017-01-03T01:48:56.211Z,2.2
2017-01-03T01:49:06.205Z,2.2
2017-01-03T01:49:16.198Z,2.2
2017-01-03T01:49:26.189Z,2.2
2017-01-03T01:49:36.182Z,2.2
2017-01-03T01:49:46.176Z,2.2
2017-01-03T01:49:56.168Z,2.2
2017-01-03T01:50:06.171Z,2.2
2017-01-03T01:50:16.158Z,2.2
2017-01-03T01:50:26.148Z,2.2
2017-01-03T01:50:36.141Z,2.2
2017-01-03T01:50:46.134Z,2.2
2017-01-03T01:50:56.129Z,2.2
2017-01-03T01:51:06.123Z,2.2
2017-01-03T01:51:16.117Z,2.2
2017-01-03T01:51:26.105Z,2.2
2017-01-03T01:51:36.098Z,2.2
2017-01-03T01:51:46.095Z,2.2
2017-01-03T01:51:56.090Z,2.2
2017-01-03T01:52:06.084Z,2.2
2017-01-03T01:52:16.073Z,2.2
2017-01-03T01:52:26.067Z,2.2
2017-01-03T01:52:36.059Z,2.2
2017-01-03T01:52:46.190Z,2.2
2017-01-03T01:52:56.046Z,2.2
2017-01-03T01:53:06.036Z,2.2
2017-01-03T01:53:16.162Z,2.2
2017-01-03T01:53:26.024Z,2.1
2017-01-03T01:53:36.020Z,2.1
2017-01-03T01:53:46.014Z,2.1
2017-01-03T01:53:56.007Z,2.1
2017-01-03T01:54:05.998Z,2.2
2017-01-03T01:54:15.992Z,2.2
2017-01-03T01:54:25.985Z,2.2
2017-01-03T01:54:35.980Z,2.2
2017-01-03T01:54:45.992Z,2.2
2017-01-03T01:54:55.973Z,2.2
2017-01-03T01:55:05.958Z,2.2
2017-01-03T01:55:15.954Z,2.1
2017-01-03T01:55:25.940Z,2.1
2017-01-03T01:55:35.936Z,2.1
2017-01-03T01:55:45.929Z,2.1
2017-01-03T01:55:55.919Z,2.1
2017-01-03T01:56:05.920Z,2.1
2017-01-03T01:56:15.940Z,2.1
2017-01-03T01:56:25.902Z,2.1
2017-01-03T01:56:35.895Z,2.1
2017-01-03T01:56:45.889Z,2.1
2017-01-03T01:56:55.884Z,2.1
2017-01-03T01:57:05.875Z,2.1
2017-01-03T01:57:15.871Z,2.1
2017-01-03T01:57:25.861Z,2.1
2017-01-03T01:57:35.854Z,2.1
2017-01-03T01:57:45.848Z,2.1
2017-01-03T01:57:55.856Z,2.1
2017-01-03T01:58:05.837Z,2.1
2017-01-03T01:58:15.830Z,2.1
2017-01-03T01:58:25.817Z,2.1
2017-01-03T01:58:35.814Z,2.2
2017-01-03T01:58:45.806Z,2.1
2017-01-03T01:58:55.803Z,2.1
2017-01-03T01:59:05.797Z,2.1
2017-01-03T01:59:15.782Z,2.1
2017-01-03T01:59:25.779Z,2.1
2017-01-03T01:59:35.772Z,2.1
2017-01-03T01:59:45.767Z,2.1
2017-01-03T01:59:55.758Z,2.1
2017-01-03T02:00:05.754Z,2.1
2017-01-03T02:00:15.744Z,2.1
2017-01-03T02:00:25.741Z,2.1
2017-01-03T02:00:35.732Z,2.1
2017-01-03T02:00:45.727Z,2.1
2017-01-03T02:00:55.849Z,2.1
2017-01-03T02:01:05.708Z,2.1
2017-01-03T02:01:15.705Z,2.1
2017-01-03T02:01:25.695Z,2.1
2017-01-03T02:01:35.709Z,2.1
2017-01-03T02:01:45.680Z,2.2
2017-01-03T02:01:55.673Z,2.2
2017-01-03T02:02:05.671Z,2.2
2017-01-03T02:02:15.659Z,2.2
2017-01-03T02:02:25.654Z,2.1
2017-01-03T02:02:35.650Z,2.1
2017-01-03T02:02:45.643Z,2.1
2017-01-03T02:02:55.635Z,2.1
2017-01-03T02:03:05.625Z,2.1
2017-01-03T02:03:15.617Z,2.1
2017-01-03T02:03:25.613Z,2.2
2017-01-03T02:03:35.609Z,2.1
2017-01-03T02:03:45.598Z,2.1
2017-01-03T02:03:55.598Z,2.2
2017-01-03T02:04:05.583Z,2.2
2017-01-03T02:04:15.583Z,2.2
2017-01-03T02:04:25.699Z,2.2
2017-01-03T02:04:35.569Z,2.1
2017-01-03T02:04:45.559Z,2.1
2017-01-03T02:04:55.969Z,2.2
2017-01-03T02:05:05.543Z,2.1
2017-01-03T02:05:15.537Z,2.1
2017-01-03T02:05:25.662Z,2.1
2017-01-03T02:05:35.527Z,2.1
2017-01-03T02:05:45.517Z,2.1
2017-01-03T02:05:55.512Z,2.1
2017-01-03T02:06:05.504Z,2.2
2017-01-03T02:06:15.495Z,2.2
2017-01-03T02:06:25.492Z,2.2
2017-01-03T02:06:35.914Z,2.2
2017-01-03T02:06:45.478Z,2.2
2017-01-03T02:06:55.473Z,2.2
2017-01-03T02:07:05.463Z,2.2
2017-01-03T02:07:15.456Z,2.2
2017-01-03T02:07:25.448Z,2.2
2017-01-03T02:07:35.472Z,2.2
2017-01-03T02:07:45.433Z,2.2
2017-01-03T02:07:55.429Z,2.2
2017-01-03T02:08:05.421Z,2.2
2017-01-03T02:08:15.834Z,2.2
2017-01-03T02:08:25.411Z,2.2
2017-01-03T02:08:35.401Z,2.2
2017-01-03T02:08:45.395Z,2.2
2017-01-03T02:08:55.384Z,2.2
2017-01-03T02:09:05.377Z,2.2
2017-01-03T02:09:15.372Z,2.2
2017-01-03T02:09:25.369Z,2.2
2017-01-03T02:09:35.360Z,2.2
2017-01-03T02:09:45.353Z,2.2
2017-01-03T02:09:55.344Z,2.2
2017-01-03T02:10:05.339Z,2.2
2017-01-03T02:10:15.462Z,2.2
2017-01-03T02:10:25.328Z,2.2
2017-01-03T02:10:35.344Z,2.2
2017-01-03T02:10:45.313Z,2.2
2017-01-03T02:10:55.303Z,2.2
2017-01-03T02:11:05.298Z,2.2
2017-01-03T02:11:15.289Z,2.2
2017-01-03T02:11:25.286Z,2.2
2017-01-03T02:11:35.279Z,2.2
2017-01-03T02:11:45.273Z,2.2
2017-01-03T02:11:55.266Z,2.2
2017-01-03T02:12:05.256Z,2.2
2017-01-03T02:12:15.249Z,2.2
2017-01-03T02:12:25.245Z,2.2
2017-01-03T02:12:35.238Z,2.2
2017-01-03T02:12:45.228Z,2.2
2017-01-03T02:12:55.221Z,2.1
2017-01-03T02:13:05.351Z,2.1
2017-01-03T02:13:15.208Z,2.2
2017-01-03T02:13:25.202Z,2.2
2017-01-03T02:13:35.205Z,2.2
2017-01-03T02:13:45.184Z,2.2
2017-01-03T02:13:55.179Z,2.2
2017-01-03T02:14:05.174Z,2.2
2017-01-03T02:14:15.169Z,2.2
2017-01-03T02:14:25.163Z,2.2
2017-01-03T02:14:35.156Z,2.2
2017-01-03T02:14:45.144Z,2.2
2017-01-03T02:14:55.163Z,2.1
2017-01-03T02:15:05.134Z,2.1
2017-01-03T02:15:15.543Z,2.2
2017-01-03T02:15:25.120Z,2.1
2017-01-03T02:15:35.112Z,2.2
2017-01-03T02:15:45.116Z,2.2
2017-01-03T02:15:55.098Z,2.2
2017-01-03T02:16:05.093Z,2.2
2017-01-03T02:16:15.085Z,2.2
2017-01-03T02:16:25.079Z,2.1
2017-01-03T02:16:35.069Z,2.1
2017-01-03T02:16:45.064Z,2.1
2017-01-03T02:16:55.055Z,2.2
2017-01-03T02:17:05.190Z,2.1
2017-01-03T02:17:15.044Z,2.1
2017-01-03T02:17:25.037Z,2.1
2017-01-03T02:17:35.032Z,2.1